Time;durP1;ratioP1;P1;durP2;ratioP2;P2;SDS_P1;SDS_P2;PMS_P1;PMS_P2;Temp;Humidity;BMP_temperature;BMP_pressure;BME280_temperature;BME280_humidity;BME280_pressure;Samples;Min_cycle;Max_cycle;Signal;HPM_P1;HPM_P2
2021/08/24 00:00:26;;;;;;;8.35;4.40;;;;;;;17.47;67.29;102818.72;10480891;28;20476;-84
2021/08/24 00:05:32;;;;;;;5.03;4.00;;;;;;;17.44;67.03;102819.97;10498531;28;20039;-84
2021/08/24 00:10:37;;;;;;;13.27;4.30;;;;;;;16.68;67.14;102708.19;10481581;28;20017;-84
2021/08/24 00:15:38;;;;;;;6.68;4.57;;;;;;;17.40;67.00;102813.19;10481559;28;20285;-84
2021/08/24 00:20:40;;;;;;;10.27;3.72;;;;;;;17.40;66.85;102826.88;10497760;28;20499;-84
2021/08/24 00:25:41;;;;;;;4.82;3.78;;;;;;;17.22;67.02;102788.16;10480574;28;20543;-84
2021/08/24 00:30:43;;;;;;;5.70;2.95;;;;;;;17.39;66.91;102806.88;10479556;28;20102;-84
2021/08/24 00:35:44;;;;;;;4.90;3.63;;;;;;;17.40;66.67;102810.44;10509972;28;20036;-84
2021/08/24 00:41:14;;;;;;;3.47;3.13;;;;;;;17.29;66.97;102800.84;10512264;28;20047;-83
2021/08/24 00:46:27;;;;;;;16.02;3.65;;;;;;;17.42;66.73;102820.19;10498980;28;20052;-84
2021/08/24 00:51:29;;;;;;;9.43;3.00;;;;;;;17.33;66.83;102821.34;10493982;28;20036;-84
2021/08/24 00:56:30;;;;;;;3.28;2.97;;;;;;;17.38;66.44;102820.75;10508793;28;20076;-84
2021/08/24 01:01:30;;;;;;;4.78;3.33;;;;;;;17.34;66.36;102825.78;10512017;28;20074;-82
2021/08/24 01:06:38;;;;;;;5.07;3.83;;;;;;;17.27;66.29;102813.91;10493943;28;20047;-83
2021/08/24 01:11:43;;;;;;;2.97;2.67;;;;;;;17.17;66.50;102811.50;10477427;28;20375;-84
2021/08/24 01:16:48;;;;;;;3.95;3.55;;;;;;;17.17;65.97;102827.94;10477333;28;20037;-84
2021/08/24 01:21:51;;;;;;;5.35;3.63;;;;;;;17.09;66.27;102833.50;10476158;28;20044;-84
2021/08/24 01:27:15;;;;;;;4.80;3.58;;;;;;;17.03;66.55;102837.00;10510677;28;20029;-84
2021/08/24 01:32:57;;;;;;;3.65;3.05;;;;;;;16.90;66.90;102826.75;10494717;28;20143;-84
2021/08/24 01:38:19;;;;;;;3.22;2.92;;;;;;;17.03;66.55;102839.75;10477137;28;20109;-84
2021/08/24 01:43:48;;;;;;;2.85;2.65;;;;;;;16.99;66.46;102835.72;10492349;28;20036;-84
2021/08/24 01:48:50;;;;;;;4.53;3.42;;;;;;;16.90;66.62;102843.19;10486826;28;20532;-84
2021/08/24 01:54:00;;;;;;;5.13;3.17;;;;;;;16.89;66.35;102837.91;10486175;28;20072;-84
2021/08/24 01:59:15;;;;;;;8.07;3.65;;;;;;;16.76;66.50;102835.88;10484832;28;20037;-84
2021/08/24 02:04:20;;;;;;;3.72;3.10;;;;;;;16.71;67.16;102844.59;10503590;28;20074;-83
2021/08/24 02:09:32;;;;;;;4.05;3.65;;;;;;;16.66;67.22;102848.97;10485236;28;20032;-84
2021/08/24 02:14:34;;;;;;;4.50;3.72;;;;;;;16.60;67.76;102853.31;10468567;28;20174;-84
2021/08/24 02:19:44;;;;;;;4.53;4.10;;;;;;;16.49;68.03;102848.31;10485351;28;20078;-84
2021/08/24 02:24:47;;;;;;;11.10;6.53;;;;;;;16.32;68.86;102820.31;10468333;28;20036;-84
2021/08/24 02:29:48;;;;;;;10.18;6.50;;;;;;;16.41;68.90;102860.19;10483546;28;20055;-84
2021/08/24 02:35:08;;;;;;;11.02;5.97;;;;;;;16.07;68.87;102807.97;10484524;28;20048;-84
2021/08/24 02:40:39;;;;;;;8.00;5.57;;;;;;;16.21;69.04;102848.97;10485940;28;20056;-85
2021/08/24 02:45:41;;;;;;;10.40;6.88;;;;;;;16.31;69.43;102869.72;10468289;28;20032;-84
2021/08/24 02:50:41;;;;;;;9.88;7.18;;;;;;;16.15;69.28;102851.63;10501831;28;20067;-84
2021/08/24 02:55:42;;;;;;;19.70;7.28;;;;;;;16.24;68.88;102866.88;10483895;28;20035;-83
2021/08/24 03:00:43;;;;;;;14.70;9.63;;;;;;;16.17;69.20;102871.38;10501823;28;20045;-83
2021/08/24 03:05:44;;;;;;;10.98;7.95;;;;;;;16.20;68.77;102873.75;10505066;28;20032;-84
2021/08/24 03:10:45;;;;;;;11.65;8.30;;;;;;;16.21;69.30;102864.53;10483637;28;20064;-83
2021/08/24 03:16:06;;;;;;;10.45;8.13;;;;;;;16.07;69.32;102859.88;10483551;28;20395;-84
2021/08/24 03:21:10;;;;;;;13.32;7.13;;;;;;;15.72;69.17;102802.16;10500949;28;20530;-83
2021/08/24 03:26:30;;;;;;;15.27;8.13;;;;;;;16.12;68.60;102880.16;10482507;28;20411;-84
2021/08/24 03:31:31;;;;;;;10.75;7.93;;;;;;;16.13;69.57;102873.66;10500225;28;20381;-84
2021/08/24 03:36:33;;;;;;;16.55;9.00;;;;;;;16.14;69.78;102875.34;10483226;28;20036;-84
2021/08/24 03:41:33;;;;;;;15.88;9.73;;;;;;;16.14;70.17;102872.59;10482797;28;20028;-84
2021/08/24 03:46:35;;;;;;;12.15;9.50;;;;;;;16.01;70.74;102853.28;10482304;28;20041;-84
2021/08/24 03:51:36;;;;;;;42.53;12.05;;;;;;;16.20;71.00;102874.59;10498570;28;20040;-83
2021/08/24 03:56:37;;;;;;;16.98;10.35;;;;;;;16.18;70.36;102873.09;10481740;28;20082;-84
2021/08/24 04:01:37;;;;;;;25.48;10.00;;;;;;;16.16;70.38;102877.91;10480997;28;20442;-84
2021/08/24 04:06:38;;;;;;;16.85;11.30;;;;;;;16.17;70.55;102874.97;10463279;28;20127;-84
2021/08/24 04:11:39;;;;;;;23.65;13.32;;;;;;;15.99;70.81;102853.47;10498724;28;20036;-84
2021/08/24 04:16:40;;;;;;;19.30;10.95;;;;;;;16.18;71.06;102887.63;10498477;28;20047;-84
2021/08/24 04:21:43;;;;;;;17.98;11.60;;;;;;;16.22;70.92;102885.34;10480300;28;20043;-84
2021/08/24 04:26:44;;;;;;;12.05;10.95;;;;;;;16.25;70.48;102890.47;10495995;28;20047;-84
2021/08/24 04:31:44;;;;;;;14.95;10.80;;;;;;;16.32;71.67;102898.75;10455277;28;20056;-84
2021/08/24 04:36:45;;;;;;;16.40;10.98;;;;;;;16.15;71.58;102877.06;10455927;28;20045;-84
2021/08/24 04:41:47;;;;;;;17.95;11.48;;;;;;;15.97;71.47;102844.59;10472245;28;20122;-83
2021/08/24 04:46:48;;;;;;;26.30;11.68;;;;;;;16.21;71.04;102908.28;10455955;28;20590;-84
2021/08/24 04:51:49;;;;;;;25.33;12.75;;;;;;;16.29;70.67;102905.44;10472456;28;20107;-84
2021/08/24 04:56:49;;;;;;;12.77;11.52;;;;;;;16.30;70.49;102898.94;10454871;28;20478;-85
2021/08/24 05:01:50;;;;;;;16.20;11.98;;;;;;;16.38;70.09;102909.78;10471686;28;20040;-84
2021/08/24 05:06:51;;;;;;;28.73;12.80;;;;;;;16.39;70.75;102916.09;10471349;28;20456;-82
2021/08/24 05:11:52;;;;;;;20.25;11.70;;;;;;;16.46;70.05;102917.03;10424485;28;20053;-83
2021/08/24 05:16:55;;;;;;;15.40;11.60;;;;;;;16.52;70.33;102914.41;10454944;28;20045;-83
2021/08/24 05:21:56;;;;;;;16.30;12.63;;;;;;;16.05;70.12;102830.03;10461941;28;20111;-82
2021/08/24 05:26:57;;;;;;;15.00;10.27;;;;;;;16.60;70.47;102920.84;10478823;28;20551;-82
2021/08/24 05:32:02;;;;;;;18.10;11.23;;;;;;;16.78;70.45;102909.53;10461105;28;20065;-82
2021/08/24 05:37:05;;;;;;;12.77;10.13;;;;;;;16.73;70.02;102904.63;10461293;28;20028;-83
2021/08/24 05:42:06;;;;;;;11.77;10.68;;;;;;;16.90;70.02;102911.59;10462058;28;20493;-83
2021/08/24 05:47:06;;;;;;;19.45;11.10;;;;;;;17.12;70.31;102920.72;10463815;28;20083;-82
2021/08/24 05:52:09;;;;;;;20.77;12.13;;;;;;;18.41;69.17;102912.50;10461152;28;20080;-82
2021/08/24 05:57:11;;;;;;;12.73;10.75;;;;;;;19.85;66.26;102919.88;10477237;28;20063;-83
2021/08/24 06:02:11;;;;;;;16.98;12.30;;;;;;;20.56;64.07;102925.56;10444970;28;20116;-82
2021/08/24 06:07:13;;;;;;;10.80;8.43;;;;;;;20.84;62.79;102918.91;10477161;28;20471;-81
2021/08/24 06:12:15;;;;;;;10.20;7.90;;;;;;;20.93;63.16;102927.78;10476971;28;20481;-83
2021/08/24 06:17:16;;;;;;;10.65;6.07;;;;;;;21.08;63.33;102944.88;10460463;28;20044;-82
2021/08/24 06:22:18;;;;;;;9.82;6.07;;;;;;;21.70;63.17;102931.44;10459954;28;20029;-83
2021/08/24 06:27:20;;;;;;;8.30;5.90;;;;;;;21.52;62.35;102842.06;10442506;28;20102;-83
2021/08/24 06:32:35;;;;;;;12.80;5.93;;;;;;;22.32;62.01;102915.03;10441817;28;20492;-82
2021/08/24 06:37:35;;;;;;;8.50;5.13;;;;;;;22.68;62.47;102944.59;10460566;28;20112;-83
2021/08/24 06:42:46;;;;;;;17.15;5.40;;;;;;;22.86;60.34;102939.09;10459137;28;20052;-83
2021/08/24 06:47:47;;;;;;;7.57;4.97;;;;;;;22.79;59.69;102943.84;10474932;28;20040;-82
2021/08/24 06:52:47;;;;;;;4.65;4.28;;;;;;;22.63;60.00;102944.44;10475223;28;20485;-83
2021/08/24 06:57:48;;;;;;;3.75;3.45;;;;;;;23.57;58.77;102942.22;10473663;28;20052;-83
2021/08/24 07:02:49;;;;;;;5.97;4.43;;;;;;;24.08;57.81;102943.56;10457953;28;20353;-83
2021/08/24 07:07:50;;;;;;;8.23;3.58;;;;;;;24.14;58.94;102948.16;10457253;28;20102;-82
2021/08/24 07:12:53;;;;;;;5.68;3.97;;;;;;;24.03;57.63;102888.09;10441014;28;20033;-82
2021/08/24 07:17:55;;;;;;;7.32;3.97;;;;;;;25.07;53.54;102929.78;10473924;28;20047;-82
2021/08/24 07:22:58;;;;;;;4.05;3.22;;;;;;;25.12;52.13;102949.34;10457652;28;20040;-82
2021/08/24 07:27:58;;;;;;;6.05;3.03;;;;;;;25.00;55.83;102946.56;10440275;28;20408;-82
2021/08/24 07:32:59;;;;;;;6.95;3.72;;;;;;;25.06;53.53;102948.34;10472715;28;20143;-82
2021/08/24 07:38:00;;;;;;;3.55;3.25;;;;;;;25.79;51.87;102951.44;10451513;28;20033;-82
2021/08/24 07:43:02;;;;;;;6.57;3.25;;;;;;;26.31;52.42;102958.72;10467601;28;20103;-82
2021/08/24 07:48:03;;;;;;;7.10;2.88;;;;;;;25.83;54.22;102897.13;10452301;28;20098;-81
2021/08/24 07:53:03;;;;;;;7.72;4.25;;;;;;;25.85;50.40;102919.94;10468766;28;20064;-82
2021/08/24 07:58:05;;;;;;;4.38;2.75;;;;;;;26.08;50.98;102956.97;10467609;28;20357;-82
2021/08/24 08:03:05;;;;;;;8.95;3.05;;;;;;;25.54;53.72;102960.13;10453580;28;20370;-82
2021/08/24 08:08:06;;;;;;;3.72;2.58;;;;;;;25.01;55.99;102952.94;10453622;28;20075;-82
2021/08/24 08:13:12;;;;;;;3.47;3.17;;;;;;;25.49;53.73;102979.44;10451633;28;20508;-82
2021/08/24 08:18:15;;;;;;;11.70;3.25;;;;;;;25.35;53.61;102970.59;10451357;28;20111;-82
2021/08/24 08:23:17;;;;;;;7.78;3.28;;;;;;;25.19;52.38;102966.66;10466364;28;20056;-82
2021/08/24 08:28:17;;;;;;;5.30;2.38;;;;;;;25.77;53.18;102974.97;10446035;28;20203;-82
2021/08/24 08:33:18;;;;;;;10.95;3.50;;;;;;;25.52;54.61;102981.72;10446988;28;20053;-81
2021/08/24 08:38:18;;;;;;;4.88;3.22;;;;;;;25.77;52.31;102972.19;10446877;28;20053;-81
2021/08/24 08:43:40;;;;;;;3.28;2.80;;;;;;;25.41;53.79;102938.25;10407515;28;20049;-80
2021/08/24 08:48:54;;;;;;;8.05;3.65;;;;;;;26.41;53.80;102968.03;10446945;28;20049;-80
2021/08/24 08:54:03;;;;;;;13.35;3.42;;;;;;;27.36;51.64;102954.06;10463590;28;20040;-80
2021/08/24 08:59:25;;;;;;;2.88;2.67;;;;;;;27.94;48.58;102952.44;10456044;28;20036;-80
2021/08/24 09:04:31;;;;;;;7.50;3.03;;;;;;;26.92;51.75;102956.00;10470734;28;20076;-80
2021/08/24 09:09:32;;;;;;;5.22;3.08;;;;;;;27.18;47.77;102907.13;10454189;28;20033;-80
2021/08/24 09:14:38;;;;;;;6.82;2.90;;;;;;;26.67;48.19;102966.53;10470812;28;20442;-81
2021/08/24 09:19:43;;;;;;;7.38;2.60;;;;;;;27.20;48.48;102933.56;10454561;28;20060;-80
2021/08/24 09:24:45;;;;;;;3.17;2.53;;;;;;;27.76;46.76;102963.91;10469179;28;20056;-81
2021/08/24 09:29:47;;;;;;;3.13;2.63;;;;;;;28.34;44.53;102976.16;10462456;28;20045;-81
2021/08/24 09:34:48;;;;;;;2.65;2.45;;;;;;;27.64;44.40;102894.53;10496647;28;20068;-81
2021/08/24 09:39:53;;;;;;;2.55;2.35;;;;;;;26.97;45.52;102936.63;10481144;28;20043;-81
2021/08/24 09:44:54;;;;;;;2.58;2.38;;;;;;;26.92;52.01;102970.72;10500979;28;20131;-81
2021/08/24 09:49:59;;;;;;;7.15;2.45;;;;;;;26.23;50.01;102956.34;10499062;28;20064;-81
2021/08/24 09:55:04;;;;;;;4.25;2.67;;;;;;;26.24;50.80;102942.22;10498384;28;20207;-81
2021/08/24 10:00:11;;;;;;;3.05;2.45;;;;;;;27.35;45.04;102966.31;10482058;28;20033;-81
2021/08/24 10:05:12;;;;;;;;;;;;;;;27.61;50.87;102955.44;10500092;28;20051;-81
2021/08/24 10:10:36;;;;;;;4.03;2.97;;;;;;;27.89;50.96;102952.41;10498962;28;19916;-81
2021/08/24 10:15:37;;;;;;;3.97;2.42;;;;;;;28.12;44.71;102959.56;10476338;28;20128;-80
2021/08/24 10:20:52;;;;;;;1.80;1.70;;;;;;;28.81;46.92;102930.72;10498828;28;20470;-80
2021/08/24 10:25:55;;;;;;;7.53;2.13;;;;;;;28.18;42.64;102883.28;10497163;28;20530;-80
2021/08/24 10:30:59;;;;;;;2.58;2.13;;;;;;;28.74;42.17;102938.50;10480963;28;20052;-80
2021/08/24 10:36:51;;;;;;;2.50;2.40;;;;;;;28.80;42.39;102931.84;10481482;28;20501;-80
2021/08/24 10:42:23;;;;;;;2.45;2.25;;;;;;;28.83;43.96;102924.91;10342373;28;20077;-80
2021/08/24 10:47:44;;;;;;;1.92;1.83;;;;;;;28.32;43.16;102913.44;10481490;28;20052;-80
2021/08/24 10:52:49;;;;;;;3.35;2.00;;;;;;;28.04;40.37;102904.31;10480056;28;20391;-80
2021/08/24 10:58:09;;;;;;;2.17;1.97;;;;;;;28.87;43.61;102910.13;10495946;28;20040;-80
2021/08/24 11:03:40;;;;;;;1.77;1.67;;;;;;;29.67;48.01;102926.56;10496942;28;20024;-80
2021/08/24 11:09:02;;;;;;;2.45;2.25;;;;;;;29.10;46.79;102875.38;10497319;28;20036;-80
2021/08/24 11:14:24;;;;;;;3.17;2.35;;;;;;;29.68;40.60;102914.28;10478239;28;20044;-80
2021/08/24 11:19:46;;;;;;;8.35;3.67;;;;;;;28.51;42.25;102861.75;10495527;28;20020;-80
2021/08/24 11:24:49;;;;;;;3.42;1.98;;;;;;;29.33;39.92;102909.47;10477830;28;20036;-80
2021/08/24 11:29:57;;;;;;;13.05;2.75;;;;;;;28.88;38.56;102858.00;10476426;28;20060;-80
2021/08/24 11:35:19;;;;;;;9.48;2.10;;;;;;;29.24;42.76;102805.09;10495091;28;20113;-80
2021/08/24 11:40:25;;;;;;;8.38;1.38;;;;;;;30.19;40.52;102889.13;10477879;28;20056;-80
2021/08/24 11:45:45;;;;;;;1.67;1.40;;;;;;;31.28;42.59;102897.63;10477580;28;20380;-80
2021/08/24 11:50:49;;;;;;;3.17;2.15;;;;;;;31.61;37.29;102905.53;10493482;28;20067;-79
2021/08/24 11:55:56;;;;;;;3.17;2.88;;;;;;;31.00;36.46;102882.41;10492140;28;20090;-80
2021/08/24 12:00:58;;;;;;;2.13;2.03;;;;;;;30.51;39.10;102893.53;10475677;28;20036;-79
2021/08/24 12:06:26;;;;;;;2.13;1.92;;;;;;;30.02;39.56;102881.00;10479473;28;20044;-80
2021/08/24 12:11:39;;;;;;;4.90;2.42;;;;;;;30.15;42.38;102871.22;10472484;28;20464;-80
2021/08/24 12:16:39;;;;;;;3.35;2.08;;;;;;;30.52;37.29;102872.81;10479207;28;20036;-80
2021/08/24 12:21:39;;;;;;;1.48;1.48;;;;;;;30.91;36.69;102863.72;10494678;28;20459;-80
2021/08/24 12:26:40;;;;;;;2.58;2.13;;;;;;;30.45;37.56;102875.09;10491473;28;20447;-80
2021/08/24 12:31:45;;;;;;;2.30;2.20;;;;;;;30.51;37.93;102801.25;10473011;28;20120;-80
2021/08/24 12:36:46;;;;;;;3.50;2.75;;;;;;;30.69;38.96;102830.50;10473713;28;20025;-80
2021/08/24 12:41:47;;;;;;;2.13;1.92;;;;;;;29.77;39.29;102847.53;10492291;28;20032;-80
2021/08/24 12:47:30;;;;;;;2.78;1.63;;;;;;;29.79;39.88;102860.09;10492189;28;20037;-80
2021/08/24 12:52:32;;;;;;;2.22;2.08;;;;;;;29.51;37.02;102857.84;10459136;28;20072;-80
2021/08/24 12:57:36;;;;;;;2.97;2.67;;;;;;;29.93;38.44;102835.25;10489318;28;20463;-80
2021/08/24 13:02:36;;;;;;;1.98;1.88;;;;;;;29.46;36.30;102768.53;10491280;28;20115;-80
2021/08/24 13:07:56;;;;;;;1.98;1.88;;;;;;;29.84;40.37;102853.69;10489650;28;20127;-80
2021/08/24 13:12:57;;;;;;;3.22;1.88;;;;;;;29.36;46.21;102812.06;10490286;28;20032;-79
2021/08/24 13:18:01;;;;;;;1.88;1.77;;;;;;;28.64;42.74;102838.94;10491348;28;20048;-80
2021/08/24 13:23:08;;;;;;;6.10;1.83;;;;;;;28.21;47.95;102804.72;10473940;28;20043;-80
2021/08/24 13:28:11;;;;;;;7.65;2.83;;;;;;;27.85;43.28;102770.25;10473781;28;20043;-80
2021/08/24 13:33:31;;;;;;;3.97;1.70;;;;;;;28.31;42.72;102822.63;10491788;28;20049;-80
2021/08/24 13:38:33;;;;;;;2.15;1.95;;;;;;;28.42;44.01;102805.69;10490746;28;20089;-80
2021/08/24 13:43:35;;;;;;;3.72;2.10;;;;;;;29.22;40.85;102738.38;10498228;28;20070;-80
2021/08/24 13:48:36;;;;;;;5.65;2.40;;;;;;;29.65;42.38;102801.19;10496026;28;20036;-80
2021/08/24 13:53:49;;;;;;;3.60;1.83;;;;;;;29.03;41.29;102807.00;10478210;28;20060;-80
2021/08/24 13:58:51;;;;;;;2.20;2.05;;;;;;;29.18;40.96;102807.03;10494250;28;20447;-80
2021/08/24 14:04:06;;;;;;;1.88;1.77;;;;;;;29.02;43.72;102808.97;10461410;28;20119;-80
2021/08/24 14:09:31;;;;;;;2.17;2.05;;;;;;;28.29;41.92;102748.47;10496475;28;20058;-80
2021/08/24 14:14:40;;;;;;;4.72;1.55;;;;;;;29.49;42.40;102813.47;10478054;28;20372;-80
2021/08/24 14:19:41;;;;;;;16.40;2.90;;;;;;;28.44;42.63;102809.03;10476634;28;20075;-80
2021/08/24 14:24:41;;;;;;;1.48;1.38;;;;;;;28.58;44.64;102802.94;10494928;28;20442;-80
2021/08/24 14:29:44;;;;;;;1.77;1.67;;;;;;;28.52;41.71;102797.34;10457822;28;20052;-80
2021/08/24 14:34:45;;;;;;;4.15;1.27;;;;;;;27.99;42.50;102807.66;10474645;28;20037;-80
2021/08/24 14:39:59;;;;;;;5.57;2.88;;;;;;;26.56;45.81;102750.72;10475280;28;20147;-80
2021/08/24 14:45:00;;;;;;;12.23;2.22;;;;;;;27.51;44.56;102817.03;10494755;28;20059;-80
2021/08/24 14:50:02;;;;;;;11.65;2.45;;;;;;;27.85;46.78;102803.66;10492601;28;20039;-80
2021/08/24 14:55:12;;;;;;;4.50;2.33;;;;;;;28.28;43.75;102807.28;10473988;28;20445;-80
2021/08/24 15:00:28;;;;;;;1.90;1.75;;;;;;;27.97;46.53;102739.41;10492177;28;20051;-80
2021/08/24 15:05:40;;;;;;;1.65;1.58;;;;;;;27.75;47.20;102801.63;10477434;28;20366;-80
2021/08/24 15:10:56;;;;;;;1.80;1.70;;;;;;;27.14;46.09;102784.44;10494912;28;20060;-80
2021/08/24 15:15:57;;;;;;;9.02;1.80;;;;;;;26.93;44.72;102783.38;10474543;28;20531;-80
2021/08/24 15:20:58;;;;;;;1.65;1.55;;;;;;;27.00;49.20;102775.66;10493124;28;20226;-80
2021/08/24 15:26:22;;;;;;;6.70;2.42;;;;;;;26.48;48.85;102778.97;10474986;28;20137;-80
2021/08/24 15:31:23;;;;;;;1.73;1.63;;;;;;;26.34;46.99;102764.59;10486392;28;20048;-80
2021/08/24 15:36:25;;;;;;;1.90;1.80;;;;;;;26.23;46.29;102792.50;10476849;28;20366;-80
2021/08/24 15:41:28;;;;;;;1.33;1.33;;;;;;;25.48;47.96;102761.41;10476360;28;20052;-80
2021/08/24 15:46:32;;;;;;;2.22;2.08;;;;;;;24.90;52.42;102773.69;10494315;28;20036;-80
2021/08/24 15:51:33;;;;;;;2.55;1.83;;;;;;;24.47;49.74;102750.09;10476649;28;20081;-80
2021/08/24 15:56:33;;;;;;;4.90;2.78;;;;;;;24.66;51.42;102771.00;10493219;28;20174;-80
2021/08/24 16:01:34;;;;;;;8.93;3.17;;;;;;;24.04;51.08;102734.78;10493859;28;20438;-80
2021/08/24 16:06:36;;;;;;;2.58;2.30;;;;;;;24.09;52.21;102760.66;10473457;28;20486;-80
2021/08/24 16:11:43;;;;;;;5.72;2.08;;;;;;;24.01;52.89;102762.97;10491440;28;20024;-81
2021/08/24 16:16:43;;;;;;;4.00;2.22;;;;;;;24.05;51.48;102753.06;10470048;28;20412;-81
2021/08/24 16:21:46;;;;;;;8.48;2.33;;;;;;;23.71;52.02;102733.53;10490065;28;20043;-80
2021/08/24 16:26:47;;;;;;;2.42;2.08;;;;;;;23.78;54.41;102750.84;10494345;28;20040;-80
2021/08/24 16:31:47;;;;;;;2.42;2.15;;;;;;;23.72;52.15;102737.97;10467076;28;20055;-81
2021/08/24 16:36:48;;;;;;;2.45;2.25;;;;;;;23.34;55.23;102738.41;10451480;28;20475;-80
2021/08/24 16:41:48;;;;;;;3.83;1.67;;;;;;;23.32;54.46;102759.91;10452151;28;20068;-80
2021/08/24 16:46:48;;;;;;;12.13;3.10;;;;;;;23.13;53.65;102739.78;10467379;28;20051;-80
2021/08/24 16:51:49;;;;;;;1.60;1.50;;;;;;;22.90;53.91;102740.53;10433439;28;20460;-80
2021/08/24 16:56:49;;;;;;;2.15;1.80;;;;;;;22.98;53.54;102738.31;10451492;28;20453;-80
2021/08/24 17:01:50;;;;;;;2.08;1.98;;;;;;;22.87;54.13;102750.13;10467655;28;20094;-82
2021/08/24 17:06:50;;;;;;;11.65;1.90;;;;;;;22.80;55.10;102743.03;10448352;28;20029;-80
2021/08/24 17:11:51;;;;;;;3.58;2.35;;;;;;;22.55;54.81;102732.13;10445857;28;20073;-80
2021/08/24 17:16:52;;;;;;;4.13;2.33;;;;;;;22.59;54.85;102716.78;10466755;28;20490;-81
2021/08/24 17:21:54;;;;;;;2.63;2.00;;;;;;;22.51;55.17;102740.88;10472101;28;20060;-81
2021/08/24 17:26:54;;;;;;;5.03;2.30;;;;;;;22.58;55.40;102748.22;10459574;28;20043;-80
2021/08/24 17:31:55;;;;;;;12.27;2.80;;;;;;;22.39;55.88;102753.78;10487639;28;20057;-81
2021/08/24 17:36:55;;;;;;;16.15;4.82;;;;;;;22.41;55.27;102759.91;10500629;28;20036;-80
2021/08/24 17:41:57;;;;;;;2.45;2.25;;;;;;;22.24;55.89;102753.34;10497286;28;20040;-80
2021/08/24 17:47:01;;;;;;;3.08;2.75;;;;;;;22.14;55.67;102750.22;10497884;28;20131;-81
2021/08/24 17:52:02;;;;;;;5.28;2.67;;;;;;;21.55;55.87;102686.38;10480356;28;20040;-81
2021/08/24 17:57:02;;;;;;;5.45;3.10;;;;;;;22.04;55.35;102750.78;10480194;28;20120;-81
2021/08/24 18:02:03;;;;;;;2.92;2.72;;;;;;;21.97;55.32;102750.84;10500151;28;20107;-81
2021/08/24 18:07:04;;;;;;;3.65;2.65;;;;;;;21.79;55.75;102745.31;10501568;28;20072;-81
2021/08/24 18:12:04;;;;;;;6.32;2.40;;;;;;;21.75;55.81;102755.94;10501289;28;20040;-81
2021/08/24 18:17:05;;;;;;;2.75;2.45;;;;;;;21.61;56.11;102746.13;10501264;28;20530;-81
2021/08/24 18:22:06;;;;;;;4.57;2.30;;;;;;;21.42;56.30;102742.50;10500540;28;20488;-81
2021/08/24 18:27:06;;;;;;;2.50;2.13;;;;;;;21.43;56.20;102746.09;10479215;28;20117;-81
2021/08/24 18:32:08;;;;;;;9.73;3.03;;;;;;;21.22;56.93;102750.91;10478131;28;20056;-81
2021/08/24 18:37:09;;;;;;;6.30;3.20;;;;;;;21.14;56.28;102749.25;10478834;28;20178;-81
2021/08/24 18:42:09;;;;;;;6.10;1.80;;;;;;;21.01;56.64;102760.34;10477535;28;20043;-80
2021/08/24 18:47:15;;;;;;;12.65;2.70;;;;;;;20.82;56.63;102751.16;10490763;28;20118;-77
2021/08/24 18:52:15;;;;;;;2.83;2.58;;;;;;;20.44;57.10;102721.69;10493944;28;20060;-77
2021/08/24 18:57:16;;;;;;;1.50;1.40;;;;;;;20.58;58.01;102768.44;10490390;28;20048;-76
2021/08/24 19:02:16;;;;;;;8.80;2.45;;;;;;;20.48;58.26;102770.78;10472920;28;20048;-76
2021/08/24 19:07:16;;;;;;;3.17;2.53;;;;;;;19.79;59.11;102689.78;10491076;28;20096;-77
2021/08/24 19:12:17;;;;;;;2.83;1.85;;;;;;;20.01;60.41;102770.09;10492340;28;20440;-76
2021/08/24 19:17:18;;;;;;;2.35;2.15;;;;;;;19.54;60.15;102717.91;10471465;28;20073;-76
2021/08/24 19:22:18;;;;;;;2.22;2.10;;;;;;;19.73;60.38;102752.78;10488855;28;20096;-76
2021/08/24 19:27:21;;;;;;;1.63;1.52;;;;;;;19.79;61.21;102786.00;10490700;28;20373;-76
2021/08/24 19:32:22;;;;;;;2.38;2.17;;;;;;;19.51;61.88;102768.63;10491129;28;20068;-76
2021/08/24 19:37:23;;;;;;;4.00;2.85;;;;;;;19.64;62.08;102795.31;10400734;28;20052;-78
2021/08/24 19:42:23;;;;;;;9.35;3.00;;;;;;;19.59;61.77;102789.59;10489461;28;20512;-77
2021/08/24 19:47:24;;;;;;;3.63;2.13;;;;;;;19.43;62.14;102773.50;10489817;28;20155;-77
2021/08/24 19:52:25;;;;;;;4.22;2.72;;;;;;;19.42;62.29;102778.16;10474091;28;20063;-77
2021/08/24 19:57:25;;;;;;;3.50;3.10;;;;;;;19.42;61.88;102791.03;10492793;28;20044;-76
2021/08/24 20:02:26;;;;;;;6.40;2.92;;;;;;;19.29;62.63;102786.38;10474528;28;20107;-77
2021/08/24 20:07:26;;;;;;;7.15;2.75;;;;;;;19.19;62.94;102788.69;10490764;28;20075;-76
2021/08/24 20:12:28;;;;;;;11.73;2.70;;;;;;;19.11;63.41;102776.00;10490952;28;20086;-76
2021/08/24 20:17:28;;;;;;;2.47;2.28;;;;;;;18.94;63.69;102794.75;10491306;28;20063;-77
2021/08/24 20:22:31;;;;;;;2.25;2.15;;;;;;;18.92;63.78;102793.28;10473952;28;20196;-76
2021/08/24 20:27:31;;;;;;;3.65;2.65;;;;;;;18.86;63.83;102785.88;10491296;28;20456;-77
2021/08/24 20:32:31;;;;;;;3.60;3.20;;;;;;;18.84;64.17;102790.72;10456719;28;20060;-77
2021/08/24 20:37:32;;;;;;;5.78;2.38;;;;;;;18.67;64.75;102793.81;10491474;28;20127;-81
2021/08/24 20:42:32;;;;;;;2.75;2.47;;;;;;;18.60;64.97;102776.47;10493044;28;20035;-81
2021/08/24 20:47:33;;;;;;;2.65;2.33;;;;;;;18.32;64.83;102728.03;10492570;28;20032;-81
2021/08/24 20:52:33;;;;;;;4.90;3.88;;;;;;;18.56;65.19;102781.50;10499971;28;20051;-81
2021/08/24 20:57:34;;;;;;;3.35;2.85;;;;;;;18.54;65.29;102774.56;10500503;28;20072;-81
2021/08/24 21:02:34;;;;;;;23.92;11.05;;;;;;;18.50;65.29;102770.50;10500248;28;20043;-80
2021/08/24 21:07:36;;;;;;;2.78;2.22;;;;;;;18.37;66.56;102774.03;10500948;28;20112;-80
2021/08/24 21:12:36;;;;;;;9.05;3.58;;;;;;;18.35;66.34;102779.75;10500531;28;20089;-80
2021/08/24 21:17:37;;;;;;;3.45;3.15;;;;;;;18.34;65.91;102768.97;10500539;28;20051;-80
2021/08/24 21:22:37;;;;;;;6.10;3.65;;;;;;;18.32;66.23;102777.41;10500425;28;20032;-80
2021/08/24 21:27:38;;;;;;;3.88;3.47;;;;;;;18.31;66.06;102783.09;10499513;28;20048;-80
2021/08/24 21:32:40;;;;;;;6.72;4.07;;;;;;;17.66;66.36;102670.09;10499497;28;20063;-80
2021/08/24 21:37:40;;;;;;;4.68;4.15;;;;;;;18.21;66.67;102779.88;10481512;28;20383;-80
2021/08/24 21:42:41;;;;;;;6.70;4.28;;;;;;;18.07;67.94;102768.00;10499999;28;20052;-79
2021/08/24 21:47:42;;;;;;;4.88;4.38;;;;;;;17.92;66.75;102751.66;10497273;28;20454;-80
2021/08/24 21:52:44;;;;;;;5.40;4.90;;;;;;;17.46;67.40;102710.22;10481382;28;20032;-80
2021/08/24 21:57:46;;;;;;;9.25;3.92;;;;;;;17.70;66.39;102715.22;10496339;28;20041;-80
2021/08/24 22:02:47;;;;;;;6.15;4.55;;;;;;;17.81;67.61;102753.06;10496191;28;20101;-81
2021/08/24 22:07:48;;;;;;;7.88;4.78;;;;;;;17.86;68.09;102761.53;10479868;28;20057;-80
2021/08/24 22:12:49;;;;;;;5.18;4.78;;;;;;;17.86;67.91;102777.97;10497474;28;20036;-80
2021/08/24 22:17:54;;;;;;;8.68;6.45;;;;;;;17.89;67.97;102787.69;10461611;28;20109;-81
2021/08/24 22:22:55;;;;;;;5.07;4.60;;;;;;;17.85;67.33;102781.75;10495739;28;20043;-81
2021/08/24 22:27:56;;;;;;;7.50;5.80;;;;;;;17.78;67.64;102794.59;10495263;28;20044;-81
2021/08/24 22:33:03;;;;;;;8.48;6.13;;;;;;;17.74;67.91;102785.03;10453535;28;20121;-81
2021/08/24 22:38:03;;;;;;;;;;;;;;;17.67;67.81;102790.44;10454916;28;20112;-81
2021/08/24 22:43:04;;;;;;;6.88;5.78;;;;;;;16.80;68.65;102667.53;10452945;28;20327;-81
2021/08/24 22:48:05;;;;;;;13.93;7.32;;;;;;;17.65;68.40;102791.72;10436333;28;20099;-80
2021/08/24 22:53:05;;;;;;;11.23;7.20;;;;;;;17.20;67.81;102717.19;10467751;28;20116;-81
2021/08/24 22:58:07;;;;;;;10.65;7.40;;;;;;;17.57;68.70;102780.88;10449686;28;20041;-80
2021/08/24 23:03:08;;;;;;;10.35;7.68;;;;;;;17.39;68.76;102767.69;10453093;28;20071;-81
2021/08/24 23:08:10;;;;;;;16.85;8.63;;;;;;;17.46;69.30;102784.19;10455297;28;20087;-81
2021/08/24 23:13:10;;;;;;;11.18;7.80;;;;;;;17.38;68.65;102780.50;10449925;28;20032;-81